createdAt,value
2019-02-06T00:00:47.596Z,83.23
2019-02-06T00:03:19.569Z,79.70
2019-02-06T00:05:46.817Z,77.30
2019-02-06T00:08:14.012Z,71.87
2019-02-06T00:10:41.341Z,76.60
2019-02-06T00:13:08.367Z,71.63
2019-02-06T00:15:35.674Z,69.37
2019-02-06T00:18:02.750Z,70.33
2019-02-06T00:20:30.487Z,75.87
2019-02-06T00:22:57.672Z,70.33
2019-02-06T00:25:24.659Z,63.20
2019-02-06T00:27:51.800Z,78.67
2019-02-06T00:30:20.596Z,65.83
2019-02-06T00:32:47.952Z,67.03
2019-02-06T00:35:25.585Z,69.47
2019-02-06T00:37:44.593Z,61.43
2019-02-06T00:40:11.553Z,64.17
2019-02-06T00:42:38.506Z,65.53
2019-02-06T00:45:10.057Z,57.53
2019-02-06T00:47:36.992Z,62.83
2019-02-06T00:50:09.701Z,64.40
2019-02-06T00:52:36.960Z,62.40
2019-02-06T00:55:05.289Z,71.37
2019-02-06T00:57:32.736Z,67.37
2019-02-06T00:59:59.573Z,64.43
2019-02-06T01:02:26.497Z,62.87
2019-02-06T01:04:53.367Z,69.83
2019-02-06T01:07:20.339Z,62.13
2019-02-06T01:09:47.513Z,57.70
2019-02-06T01:12:14.409Z,62.60
2019-02-06T01:14:41.433Z,64.23
2019-02-06T01:17:07.952Z,55.87
2019-02-06T01:19:34.548Z,61.57
2019-02-06T01:22:01.100Z,55.93
2019-02-06T01:24:27.759Z,60.70
2019-02-06T01:26:54.362Z,66.67
2019-02-06T01:29:21.043Z,60.43
2019-02-06T01:31:49.221Z,61.77
2019-02-06T01:34:15.887Z,63.97
2019-02-06T01:36:42.594Z,63.90
2019-02-06T01:39:11.254Z,59.97
2019-02-06T01:41:38.040Z,64.63
2019-02-06T01:44:04.558Z,65.50
2019-02-06T01:46:31.162Z,63.13
2019-02-06T01:48:57.730Z,59.10
2019-02-06T01:51:24.773Z,58.43
2019-02-06T01:53:51.497Z,65.37
2019-02-06T01:56:18.020Z,63.00
2019-02-06T01:58:44.584Z,62.23
2019-02-06T02:01:11.275Z,56.93
2019-02-06T02:03:37.837Z,60.50
2019-02-06T02:06:04.591Z,61.27
2019-02-06T02:08:33.073Z,63.73
2019-02-06T02:11:00.067Z,63.87
2019-02-06T02:13:26.635Z,61.33
2019-02-06T02:15:53.374Z,63.90
2019-02-06T02:18:19.933Z,63.13
2019-02-06T02:20:46.541Z,59.07
2019-02-06T02:23:13.273Z,66.87
2019-02-06T02:25:40.137Z,64.77
2019-02-06T02:28:06.714Z,62.73
2019-02-06T02:30:35.500Z,55.80
2019-02-06T02:33:02.337Z,64.43
2019-02-06T02:35:28.890Z,59.83
2019-02-06T02:37:55.481Z,59.90
2019-02-06T02:40:22.080Z,57.83
2019-02-06T02:42:48.727Z,58.07
2019-02-06T02:45:17.065Z,55.93
2019-02-06T02:47:44.240Z,59.53
2019-02-06T02:50:11.049Z,55.67
2019-02-06T02:52:37.726Z,74.33
2019-02-06T02:55:08.129Z,63.93
2019-02-06T02:57:34.740Z,57.27
2019-02-06T03:00:04.540Z,56.07
2019-02-06T03:02:33.084Z,60.13
2019-02-06T03:05:00.487Z,54.70
2019-02-06T03:07:27.118Z,57.47
2019-02-06T03:09:53.669Z,52.60
2019-02-06T03:12:20.224Z,55.17
2019-02-06T03:14:46.829Z,55.43
2019-02-06T03:17:13.524Z,58.60
2019-02-06T03:19:40.327Z,54.00
2019-02-06T03:22:06.927Z,55.43
2019-02-06T03:24:33.970Z,50.23
2019-02-06T03:27:00.583Z,53.63
2019-02-06T03:29:27.188Z,52.00
2019-02-06T03:31:53.768Z,54.87
2019-02-06T03:34:20.513Z,62.67
2019-02-06T03:36:47.155Z,57.73
2019-02-06T03:39:13.797Z,55.53
2019-02-06T03:41:40.440Z,58.03
2019-02-06T03:44:07.690Z,57.80
2019-02-06T03:46:34.239Z,60.03
2019-02-06T03:49:00.853Z,64.23
2019-02-06T03:51:27.684Z,57.40
2019-02-06T03:53:54.309Z,54.70
2019-02-06T03:56:20.896Z,56.07
2019-02-06T03:58:47.462Z,51.63
2019-02-06T04:01:15.237Z,66.10
2019-02-06T04:03:42.294Z,54.87
2019-02-06T04:06:08.921Z,54.63
2019-02-06T04:08:35.452Z,53.20
2019-02-06T04:11:02.114Z,51.77
2019-02-06T04:13:28.682Z,49.03
2019-02-06T04:15:55.357Z,52.03
2019-02-06T04:18:22.041Z,52.93
2019-02-06T04:20:48.587Z,59.50
2019-02-06T04:23:16.484Z,48.50
2019-02-06T04:25:43.037Z,50.93
2019-02-06T04:28:09.739Z,47.53
2019-02-06T04:30:36.349Z,51.23
2019-02-06T04:33:02.964Z,47.00
2019-02-06T04:35:29.590Z,44.70
2019-02-06T04:37:56.184Z,57.20
2019-02-06T04:40:22.736Z,51.40
2019-02-06T04:42:49.913Z,53.33
2019-02-06T04:45:18.050Z,49.80
2019-02-06T04:47:44.759Z,51.77
2019-02-06T04:50:13.974Z,56.73
2019-02-06T04:52:40.576Z,48.67
2019-02-06T04:55:11.830Z,46.33
2019-02-06T04:57:38.649Z,43.53
2019-02-06T05:00:11.744Z,44.47
2019-02-06T05:02:38.325Z,47.50
2019-02-06T05:05:05.145Z,49.40
2019-02-06T05:07:31.796Z,44.93
2019-02-06T05:09:58.516Z,48.40
2019-02-06T05:12:25.151Z,44.03
2019-02-06T05:14:51.756Z,46.27
2019-02-06T05:17:18.747Z,48.03
2019-02-06T05:19:45.339Z,43.53
2019-02-06T05:22:11.975Z,42.23
2019-02-06T05:24:38.642Z,44.03
2019-02-06T05:27:05.182Z,50.13
2019-02-06T05:29:31.916Z,44.60
2019-02-06T05:31:58.628Z,42.83
2019-02-06T05:34:25.284Z,41.07
2019-02-06T05:36:51.893Z,46.20
2019-02-06T05:39:18.520Z,49.37
2019-02-06T05:41:45.085Z,56.97
2019-02-06T05:44:11.754Z,51.43
2019-02-06T05:46:38.372Z,44.97
2019-02-06T05:49:04.909Z,48.33
2019-02-06T05:51:31.536Z,43.50
2019-02-06T05:53:58.133Z,45.17
2019-02-06T05:56:24.742Z,44.53
2019-02-06T05:58:51.712Z,47.20
2019-02-06T06:01:20.334Z,50.90
2019-02-06T06:03:46.935Z,44.37
2019-02-06T06:06:13.544Z,40.80
2019-02-06T06:08:40.334Z,42.37
2019-02-06T06:11:07.045Z,40.73
2019-02-06T06:13:33.727Z,47.63
2019-02-06T06:16:00.390Z,45.90
2019-02-06T06:18:27.440Z,42.80
2019-02-06T06:20:55.724Z,43.37
2019-02-06T06:23:22.338Z,42.13
2019-02-06T06:25:48.877Z,44.37
2019-02-06T06:28:15.489Z,48.70
2019-02-06T06:30:42.192Z,50.57
2019-02-06T06:33:09.873Z,50.97
2019-02-06T06:35:36.655Z,43.40
2019-02-06T06:38:03.211Z,49.10
2019-02-06T06:40:30.030Z,43.87
2019-02-06T06:42:56.614Z,41.93
2019-02-06T06:45:24.021Z,40.80
2019-02-06T06:47:50.928Z,41.47
2019-02-06T06:50:22.905Z,43.60
2019-02-06T06:52:49.636Z,46.33
2019-02-06T06:55:16.307Z,49.17
2019-02-06T06:57:44.380Z,42.67
2019-02-06T07:00:16.254Z,46.30
2019-02-06T07:02:42.894Z,41.50
2019-02-06T07:05:13.260Z,43.37
2019-02-06T07:07:39.924Z,45.53
2019-02-06T07:10:12.377Z,45.47
2019-02-06T07:12:39.971Z,47.10
2019-02-06T07:15:12.274Z,53.83
2019-02-06T07:17:38.831Z,38.80
2019-02-06T07:20:10.586Z,42.50
2019-02-06T07:22:37.160Z,41.07
2019-02-06T07:25:06.714Z,40.37
2019-02-06T07:27:34.042Z,49.83
2019-02-06T07:30:00.607Z,35.73
2019-02-06T07:32:27.235Z,41.33
2019-02-06T07:34:53.782Z,41.70
2019-02-06T07:37:20.363Z,37.83
2019-02-06T07:39:46.992Z,49.57
2019-02-06T07:42:13.574Z,43.83
2019-02-06T07:44:40.311Z,46.13
2019-02-06T07:47:07.463Z,49.97
2019-02-06T07:49:34.063Z,42.67
2019-02-06T07:52:00.629Z,41.73
2019-02-06T07:54:27.317Z,41.87
2019-02-06T07:56:53.964Z,46.67
2019-02-06T07:59:20.778Z,46.27
2019-02-06T08:01:47.464Z,44.40
2019-02-06T08:04:14.334Z,42.10
2019-02-06T08:06:41.600Z,38.53
2019-02-06T08:09:08.377Z,43.57
2019-02-06T08:11:35.092Z,43.00
2019-02-06T08:14:01.707Z,37.10
2019-02-06T08:16:28.446Z,42.23
2019-02-06T08:18:55.139Z,42.27
2019-02-06T08:21:21.688Z,35.37
2019-02-06T08:23:48.317Z,41.73
2019-02-06T08:26:14.898Z,45.97
2019-02-06T08:28:41.821Z,43.50
2019-02-06T08:31:08.436Z,40.87
2019-02-06T08:33:35.076Z,38.93
2019-02-06T08:36:01.625Z,37.80
2019-02-06T08:38:28.242Z,43.47
2019-02-06T08:40:54.777Z,57.60
2019-02-06T08:43:21.376Z,39.97
2019-02-06T08:45:48.403Z,36.43
2019-02-06T08:48:14.958Z,39.33
2019-02-06T08:50:41.635Z,33.67
2019-02-06T08:53:08.284Z,38.00
2019-02-06T08:55:34.820Z,37.40
2019-02-06T08:58:01.364Z,43.33
2019-02-06T09:00:32.233Z,39.53
2019-02-06T09:03:00.247Z,38.33
2019-02-06T09:05:27.294Z,41.33
2019-02-06T09:07:53.940Z,36.90
2019-02-06T09:10:24.699Z,33.83
2019-02-06T09:12:52.548Z,46.43
2019-02-06T09:15:19.190Z,49.63
2019-02-06T09:17:45.826Z,62.87
2019-02-06T09:20:16.966Z,69.53
2019-02-06T09:22:44.050Z,75.73
2019-02-06T09:25:15.737Z,44.43
2019-02-06T09:27:42.523Z,36.67
2019-02-06T09:30:14.402Z,35.87
2019-02-06T09:32:41.466Z,35.57
2019-02-06T09:35:08.212Z,42.13
2019-02-06T09:37:35.069Z,35.90
2019-02-06T09:40:04.910Z,38.70
2019-02-06T09:42:31.476Z,33.47
2019-02-06T09:44:58.190Z,43.83
2019-02-06T09:47:25.138Z,36.13
2019-02-06T09:49:51.664Z,38.23
2019-02-06T09:52:18.396Z,39.67
2019-02-06T09:54:44.966Z,34.23
2019-02-06T09:57:11.555Z,37.63
2019-02-06T09:59:38.392Z,36.43
2019-02-06T10:02:05.009Z,43.57
2019-02-06T10:04:31.641Z,37.47
2019-02-06T10:06:58.245Z,43.33
2019-02-06T10:09:24.895Z,41.83
2019-02-06T10:11:51.560Z,33.27
2019-02-06T10:14:18.236Z,37.53
2019-02-06T10:16:44.839Z,40.20
2019-02-06T10:19:11.704Z,39.73
2019-02-06T10:21:38.312Z,38.07
2019-02-06T10:24:04.892Z,37.57
2019-02-06T10:26:31.439Z,40.03
2019-02-06T10:28:58.069Z,37.13
2019-02-06T10:31:24.702Z,36.77
2019-02-06T10:33:51.274Z,38.67
2019-02-06T10:36:18.128Z,40.23
2019-02-06T10:38:44.903Z,40.70
2019-02-06T10:41:11.473Z,41.30
2019-02-06T10:43:38.152Z,39.07
2019-02-06T10:46:04.709Z,35.90
2019-02-06T10:48:31.354Z,38.63
2019-02-06T10:50:58.547Z,37.67
2019-02-06T10:53:25.357Z,36.80
2019-02-06T10:56:48.274Z,37.60
2019-02-06T10:59:14.939Z,35.80
2019-02-06T11:01:42.147Z,43.40
2019-02-06T11:04:08.796Z,33.80
2019-02-06T11:06:35.562Z,35.40
2019-02-06T11:09:04.568Z,35.17
2019-02-06T11:11:32.738Z,39.27
2019-02-06T11:13:59.300Z,35.10
2019-02-06T11:16:25.851Z,34.23
2019-02-06T11:18:52.516Z,37.10
2019-02-06T11:21:19.358Z,35.33
2019-02-06T11:23:46.089Z,34.83
2019-02-06T11:26:12.721Z,42.03
2019-02-06T11:28:39.309Z,38.53
2019-02-06T11:31:06.202Z,39.73
2019-02-06T11:33:32.805Z,45.57
2019-02-06T11:35:59.436Z,39.33
2019-02-06T11:38:28.097Z,45.20
2019-02-06T11:40:54.524Z,36.37
2019-02-06T11:43:21.124Z,81.70
2019-02-06T11:45:47.682Z,73.30
2019-02-06T11:48:14.243Z,39.20
2019-02-06T11:50:41.959Z,55.63
2019-02-06T11:53:11.966Z,38.23
2019-02-06T11:55:38.586Z,59.60
2019-02-06T11:58:05.659Z,44.00
2019-02-06T12:00:34.135Z,56.20
2019-02-06T12:03:00.808Z,69.10
2019-02-06T12:05:27.549Z,48.97
2019-02-06T12:07:58.471Z,38.17
2019-02-06T12:10:30.007Z,37.40
2019-02-06T12:12:56.643Z,36.07
2019-02-06T12:15:23.752Z,36.33
2019-02-06T12:17:50.368Z,35.50
2019-02-06T12:20:20.669Z,32.57
2019-02-06T12:22:47.246Z,39.63
2019-02-06T12:25:15.947Z,35.63
2019-02-06T12:27:44.034Z,48.43
2019-02-06T12:30:16.399Z,33.37
2019-02-06T12:32:51.961Z,37.87
2019-02-06T12:35:11.794Z,38.50
2019-02-06T12:37:39.253Z,32.47
2019-02-06T12:40:20.759Z,36.20
2019-02-06T12:42:38.363Z,32.30
2019-02-06T12:45:09.924Z,32.20
2019-02-06T12:47:36.482Z,33.00
2019-02-06T12:50:07.983Z,33.13
2019-02-06T12:52:34.598Z,34.17
2019-02-06T12:55:01.242Z,31.83
2019-02-06T12:57:36.460Z,32.90
2019-02-06T12:59:56.311Z,34.63
2019-02-06T13:02:22.884Z,35.67
2019-02-06T13:04:49.524Z,36.60
2019-02-06T13:07:17.285Z,34.93
2019-02-06T13:09:44.163Z,39.93
2019-02-06T13:12:10.842Z,38.10
2019-02-06T13:14:37.506Z,38.40
2019-02-06T13:17:04.072Z,36.73
2019-02-06T13:19:30.696Z,34.47
2019-02-06T13:21:57.268Z,36.80
2019-02-06T13:24:23.856Z,31.93
2019-02-06T13:26:50.526Z,34.10
2019-02-06T13:29:17.530Z,50.80
2019-02-06T13:31:44.166Z,43.37
2019-02-06T13:34:10.755Z,38.60
2019-02-06T13:36:37.394Z,31.67
2019-02-06T13:39:08.459Z,31.13
2019-02-06T13:41:35.064Z,31.63
2019-02-06T13:44:01.632Z,31.10
2019-02-06T13:46:32.289Z,39.43
2019-02-06T13:48:59.781Z,31.80
2019-02-06T13:51:27.967Z,31.03
2019-02-06T13:53:54.534Z,37.57
2019-02-06T13:56:21.244Z,36.07
2019-02-06T13:58:47.889Z,59.80
2019-02-06T14:01:25.287Z,41.53
2019-02-06T14:03:43.580Z,31.50
2019-02-06T14:06:11.454Z,32.30
2019-02-06T14:08:38.352Z,31.73
2019-02-06T14:11:08.573Z,35.00
2019-02-06T14:13:35.329Z,29.20
2019-02-06T14:16:04.331Z,35.40
2019-02-06T14:18:30.963Z,31.83
2019-02-06T14:20:57.807Z,37.57
2019-02-06T14:23:30.458Z,37.23
2019-02-06T14:26:02.741Z,42.67
2019-02-06T14:28:44.499Z,36.63
2019-02-06T14:31:12.955Z,47.03
2019-02-06T14:33:45.957Z,41.73
2019-02-06T14:36:16.505Z,37.00
2019-02-06T14:38:49.058Z,41.60
2019-02-06T14:41:21.478Z,32.03
2019-02-06T14:43:55.236Z,32.10
2019-02-06T14:46:25.750Z,29.70
2019-02-06T14:48:56.207Z,36.03
2019-02-06T14:51:28.483Z,35.97
2019-02-06T14:54:00.859Z,35.37
2019-02-06T14:56:33.156Z,39.87
2019-02-06T14:59:03.588Z,40.07
2019-02-06T15:01:35.852Z,41.87
2019-02-06T15:04:08.304Z,36.80
2019-02-06T15:06:40.678Z,39.70
2019-02-06T15:09:11.235Z,44.80
2019-02-06T15:11:41.749Z,48.90
2019-02-06T15:14:14.084Z,46.10
2019-02-06T15:16:46.576Z,57.13
2019-02-06T15:19:19.009Z,56.43
2019-02-06T15:21:51.828Z,38.07
2019-02-06T15:24:24.154Z,39.17
2019-02-06T15:26:56.517Z,38.53
2019-02-06T15:29:26.971Z,37.33
2019-02-06T15:31:59.339Z,36.10
2019-02-06T15:34:32.308Z,40.90
2019-02-06T15:37:02.802Z,37.03
2019-02-06T15:39:36.360Z,42.43
2019-02-06T15:42:08.685Z,42.20
2019-02-06T15:44:39.168Z,41.00
2019-02-06T15:47:11.608Z,35.87
2019-02-06T15:49:46.700Z,43.37
2019-02-06T15:52:18.430Z,42.43
2019-02-06T15:54:47.260Z,41.80
2019-02-06T15:57:19.789Z,39.57
2019-02-06T15:59:52.248Z,48.27
2019-02-06T16:02:24.622Z,44.90
2019-02-06T16:04:59.097Z,45.30
2019-02-06T16:07:31.568Z,42.33
2019-02-06T16:10:04.414Z,44.77
2019-02-06T16:12:36.738Z,47.57
2019-02-06T16:15:09.184Z,44.10
2019-02-06T16:17:41.907Z,40.27
2019-02-06T16:20:12.384Z,47.37
2019-02-06T16:22:42.777Z,52.23
2019-02-06T16:25:13.233Z,63.87
2019-02-06T16:27:45.496Z,56.87
2019-02-06T16:30:18.033Z,55.77
2019-02-06T16:32:50.324Z,56.00
2019-02-06T16:35:23.178Z,51.70
2019-02-06T16:37:55.561Z,52.43
2019-02-06T16:40:26.088Z,62.97
2019-02-06T16:42:56.470Z,80.27
2019-02-06T16:45:28.884Z,76.33
2019-02-06T16:48:01.209Z,76.67
2019-02-06T16:50:33.564Z,80.90
2019-02-06T16:53:05.924Z,70.20
2019-02-06T16:55:38.281Z,71.27
2019-02-06T16:58:08.693Z,71.20
2019-02-06T17:00:41.106Z,53.33
2019-02-06T17:03:14.678Z,51.80
2019-02-06T17:05:50.225Z,56.50
2019-02-06T17:08:20.640Z,52.53
2019-02-06T17:10:53.404Z,56.73
2019-02-06T17:13:25.745Z,65.00
2019-02-06T17:15:58.190Z,64.10
2019-02-06T17:18:30.521Z,60.27
2019-02-06T17:21:01.017Z,65.13
2019-02-06T17:23:33.587Z,77.83
2019-02-06T17:26:05.921Z,90.87
2019-02-06T17:28:38.300Z,88.20
2019-02-06T17:31:08.895Z,94.73
2019-02-06T17:33:40.259Z,90.30
2019-02-06T17:36:12.668Z,91.93
2019-02-06T17:38:45.197Z,87.50
2019-02-06T17:41:13.875Z,82.20
2019-02-06T17:43:44.395Z,87.10
2019-02-06T17:46:17.211Z,81.20
2019-02-06T17:48:49.663Z,79.30
2019-02-06T17:51:22.141Z,76.87
2019-02-06T17:53:54.487Z,73.30
2019-02-06T17:56:21.314Z,70.03
2019-02-06T17:58:48.275Z,72.30
2019-02-06T18:01:20.323Z,74.43
2019-02-06T18:03:48.310Z,74.07
2019-02-06T18:06:15.570Z,81.33
2019-02-06T18:08:42.328Z,85.63
2019-02-06T18:11:09.043Z,89.27
2019-02-06T18:13:35.595Z,93.83
2019-02-06T18:16:03.016Z,137.57
2019-02-06T18:18:29.696Z,140.63
2019-02-06T18:20:56.467Z,154.93
2019-02-06T18:23:23.167Z,142.33
2019-02-06T18:25:50.342Z,140.60
2019-02-06T18:28:16.972Z,149.77
2019-02-06T18:30:43.774Z,142.03
2019-02-06T18:33:12.244Z,157.83
2019-02-06T18:35:39.083Z,155.90
2019-02-06T18:38:06.122Z,153.33
2019-02-06T18:40:32.673Z,171.97
2019-02-06T18:42:59.352Z,181.20
2019-02-06T18:45:27.872Z,192.77
2019-02-06T18:48:00.126Z,184.37
2019-02-06T18:50:31.184Z,187.10
2019-02-06T18:52:58.070Z,194.93
2019-02-06T18:55:24.770Z,183.13
2019-02-06T18:57:52.117Z,187.60
2019-02-06T19:00:24.054Z,188.80
2019-02-06T19:02:50.901Z,215.37
2019-02-06T19:05:23.555Z,228.20
2019-02-06T19:07:50.287Z,230.37
2019-02-06T19:10:20.110Z,219.70
2019-02-06T19:12:48.941Z,200.67
2019-02-06T19:15:16.797Z,188.27
2019-02-06T19:17:47.865Z,187.27
2019-02-06T19:20:17.390Z,181.53
2019-02-06T19:22:44.760Z,174.33
2019-02-06T19:25:14.367Z,180.70
2019-02-06T19:27:41.213Z,180.30
2019-02-06T19:30:13.767Z,197.23
2019-02-06T19:32:40.546Z,197.67
2019-02-06T19:35:08.808Z,207.03
2019-02-06T19:37:35.550Z,211.23
2019-02-06T19:40:06.882Z,206.47
2019-02-06T19:42:36.453Z,226.47
2019-02-06T19:45:07.327Z,228.17
2019-02-06T19:47:34.009Z,220.90
2019-02-06T19:50:07.181Z,218.33
2019-02-06T19:52:34.311Z,227.90
2019-02-06T19:55:01.901Z,221.07
2019-02-06T19:57:30.112Z,213.77
2019-02-06T20:00:55.166Z,217.43
2019-02-06T20:03:22.468Z,216.17
2019-02-06T20:05:49.270Z,220.87
2019-02-06T20:08:16.808Z,215.27
2019-02-06T20:10:48.117Z,216.87
2019-02-06T20:13:14.993Z,223.33
2019-02-06T20:15:42.919Z,216.63
2019-02-06T20:18:10.237Z,226.70
2019-02-06T20:20:37.233Z,225.60
2019-02-06T20:23:04.922Z,226.00
2019-02-06T20:25:32.022Z,227.37
2019-02-06T20:27:59.242Z,248.70
2019-02-06T20:30:29.751Z,247.10
2019-02-06T20:32:59.810Z,234.43
2019-02-06T20:35:32.239Z,254.90
2019-02-06T20:38:00.614Z,234.87
2019-02-06T20:40:30.900Z,237.13
2019-02-06T20:42:57.928Z,241.63
2019-02-06T20:45:25.139Z,250.17
2019-02-06T20:47:52.246Z,240.20
2019-02-06T20:50:24.076Z,243.67
2019-02-06T20:52:50.916Z,224.83
2019-02-06T20:55:20.086Z,232.07
2019-02-06T20:57:47.709Z,225.10
2019-02-06T21:00:19.124Z,215.63
2019-02-06T21:02:45.965Z,220.00
2019-02-06T21:05:13.468Z,211.17
2019-02-06T21:07:40.205Z,222.30
2019-02-06T21:10:13.044Z,208.47
2019-02-06T21:12:41.067Z,209.03
2019-02-06T21:15:09.270Z,216.20
2019-02-06T21:17:36.135Z,212.93
2019-02-06T21:20:10.229Z,208.23
2019-02-06T21:22:36.928Z,197.50
2019-02-06T21:25:09.631Z,202.07
2019-02-06T21:27:36.688Z,203.80
2019-02-06T21:30:11.778Z,190.77
2019-02-06T21:32:39.289Z,190.67
2019-02-06T21:35:07.760Z,182.80
2019-02-06T21:37:34.475Z,188.30
2019-02-06T21:40:01.457Z,187.70
2019-02-06T21:42:28.390Z,174.97
2019-02-06T21:44:55.042Z,187.27
2019-02-06T21:47:21.768Z,174.73
2019-02-06T21:49:49.436Z,166.57
2019-02-06T21:52:17.681Z,178.47
2019-02-06T21:54:44.459Z,171.10
2019-02-06T21:57:11.195Z,173.70
2019-02-06T21:59:37.790Z,162.30
2019-02-06T22:02:05.069Z,165.37
2019-02-06T22:04:31.801Z,161.20
2019-02-06T22:06:58.513Z,159.90
2019-02-06T22:09:25.126Z,159.77
2019-02-06T22:11:51.851Z,157.17
2019-02-06T22:14:18.634Z,147.83
2019-02-06T22:16:45.298Z,161.43
2019-02-06T22:19:13.391Z,161.13
2019-02-06T22:21:40.997Z,158.70
2019-02-06T22:24:07.713Z,164.63
2019-02-06T22:26:34.371Z,163.50
2019-02-06T22:29:01.059Z,166.27
2019-02-06T22:31:27.797Z,140.17
2019-02-06T22:33:54.528Z,129.80
2019-02-06T22:36:23.409Z,146.73
2019-02-06T22:38:50.253Z,141.10
2019-02-06T22:41:16.804Z,126.50
2019-02-06T22:43:43.867Z,139.93
2019-02-06T22:46:10.676Z,128.90
2019-02-06T22:48:37.406Z,126.20
2019-02-06T22:51:04.118Z,140.60
2019-02-06T22:53:30.808Z,133.80
2019-02-06T22:55:57.386Z,126.73
2019-02-06T22:58:24.570Z,128.63
2019-02-06T23:00:57.942Z,121.93
2019-02-06T23:03:29.808Z,109.03
2019-02-06T23:05:56.853Z,106.33
2019-02-06T23:08:23.585Z,120.67
2019-02-06T23:10:50.299Z,113.70
2019-02-06T23:13:17.537Z,107.40
2019-02-06T23:15:44.594Z,103.73
2019-02-06T23:18:11.412Z,112.17
2019-02-06T23:20:38.217Z,106.13
2019-02-06T23:23:04.872Z,103.60
2019-02-06T23:25:31.647Z,97.03
2019-02-06T23:27:58.446Z,105.13
2019-02-06T23:30:25.872Z,106.10
2019-02-06T23:32:52.594Z,96.50
2019-02-06T23:35:19.203Z,103.10
2019-02-06T23:37:45.751Z,103.27
2019-02-06T23:40:14.813Z,98.73
2019-02-06T23:42:43.488Z,105.50
2019-02-06T23:45:10.434Z,115.93
2019-02-06T23:47:37.389Z,93.87
2019-02-06T23:50:09.600Z,98.50
2019-02-06T23:52:36.179Z,100.83
2019-02-06T23:55:05.734Z,102.37
2019-02-06T23:57:32.321Z,95.23
2019-02-06T23:59:59.237Z,97.77
